createdAt,value
2017-09-14T00:01:06.602Z,12.30
2017-09-14T00:03:34.186Z,12.20
2017-09-14T00:06:01.771Z,12.20
2017-09-14T00:08:30.108Z,12.10
2017-09-14T00:10:57.955Z,12.10
2017-09-14T00:13:25.534Z,12.00
2017-09-14T00:15:53.112Z,11.90
2017-09-14T00:18:20.695Z,11.90
2017-09-14T00:20:49.037Z,11.80
2017-09-14T00:23:16.618Z,11.80
2017-09-14T00:25:44.363Z,11.80
2017-09-14T00:28:11.975Z,11.80
2017-09-14T00:30:39.530Z,11.90
2017-09-14T00:33:07.869Z,11.80
2017-09-14T00:35:35.533Z,11.80
2017-09-14T00:38:03.184Z,11.80
2017-09-14T00:40:30.746Z,11.80
2017-09-14T00:42:58.344Z,11.80
2017-09-14T00:45:26.764Z,11.90
2017-09-14T00:47:54.347Z,11.90
2017-09-14T00:50:21.910Z,11.90
2017-09-14T00:52:49.487Z,12.00
2017-09-14T00:55:17.073Z,12.00
2017-09-14T00:57:44.617Z,12.10
2017-09-14T01:00:12.174Z,12.10
2017-09-14T01:02:39.772Z,12.10
2017-09-14T01:05:07.366Z,12.10
2017-09-14T01:07:34.942Z,12.10
2017-09-14T01:10:02.505Z,12.00
2017-09-14T01:12:30.078Z,12.00
2017-09-14T01:14:57.651Z,11.80
2017-09-14T01:17:25.281Z,11.70
2017-09-14T01:19:53.614Z,11.60
2017-09-14T01:22:21.181Z,11.60
2017-09-14T01:24:48.730Z,11.60
2017-09-14T01:27:17.097Z,11.60
2017-09-14T01:29:45.459Z,11.70
2017-09-14T01:32:13.001Z,11.70
2017-09-14T01:34:40.619Z,11.70
2017-09-14T01:37:08.945Z,11.80
2017-09-14T01:39:36.535Z,11.80
2017-09-14T01:42:04.114Z,11.80
2017-09-14T01:44:31.772Z,11.80
2017-09-14T01:47:00.193Z,11.70
2017-09-14T01:49:30.645Z,11.70
2017-09-14T01:51:58.226Z,11.60
2017-09-14T01:54:25.806Z,11.60
2017-09-14T01:56:54.146Z,11.50
2017-09-14T01:59:21.754Z,11.50
2017-09-14T02:01:49.327Z,11.50
2017-09-14T02:04:17.082Z,11.40
2017-09-14T02:06:44.651Z,11.40
2017-09-14T02:09:12.223Z,11.50
2017-09-14T02:11:40.546Z,11.70
2017-09-14T02:14:08.142Z,11.60
2017-09-14T02:16:35.706Z,11.70
2017-09-14T02:19:03.276Z,11.70
2017-09-14T02:21:30.898Z,11.80
2017-09-14T02:23:58.461Z,11.80
2017-09-14T02:26:26.046Z,11.80
2017-09-14T02:28:53.626Z,11.80
2017-09-14T02:31:21.233Z,11.80
2017-09-14T02:33:48.790Z,11.80
2017-09-14T02:36:16.353Z,11.90
2017-09-14T02:38:43.946Z,11.80
2017-09-14T02:41:12.278Z,11.70
2017-09-14T02:43:39.854Z,11.70
2017-09-14T02:46:07.418Z,11.70
2017-09-14T02:48:35.003Z,11.60
2017-09-14T02:51:03.344Z,11.50
2017-09-14T02:53:30.909Z,11.50
2017-09-14T02:55:58.534Z,11.50
2017-09-14T02:58:26.132Z,11.40
2017-09-14T03:00:53.726Z,11.40
2017-09-14T03:03:22.071Z,11.40
2017-09-14T03:05:49.641Z,11.30
2017-09-14T03:08:17.214Z,11.40
2017-09-14T03:10:45.578Z,11.30
2017-09-14T03:13:13.158Z,11.30
2017-09-14T03:15:41.638Z,11.20
2017-09-14T03:18:09.969Z,11.30
2017-09-14T03:20:37.538Z,11.30
2017-09-14T03:23:05.144Z,11.30
2017-09-14T03:25:33.502Z,11.20
2017-09-14T03:28:01.096Z,11.20
2017-09-14T03:30:29.434Z,11.20
2017-09-14T03:32:57.010Z,11.20
2017-09-14T03:35:24.611Z,11.10
2017-09-14T03:37:52.226Z,11.10
2017-09-14T03:40:19.834Z,11.10
2017-09-14T03:42:47.398Z,11.10
2017-09-14T03:45:15.038Z,11.00
2017-09-14T03:47:43.380Z,11.00
2017-09-14T03:50:11.059Z,11.00
2017-09-14T03:52:38.618Z,11.00
2017-09-14T03:55:06.214Z,11.00
2017-09-14T03:57:34.533Z,11.00
2017-09-14T04:00:02.126Z,11.00
2017-09-14T04:02:29.706Z,10.90
2017-09-14T04:04:58.049Z,10.90
2017-09-14T04:07:25.642Z,10.90
2017-09-14T04:09:53.996Z,11.00
2017-09-14T04:12:21.561Z,11.00
2017-09-14T04:14:49.162Z,11.00
2017-09-14T04:17:16.769Z,11.00
2017-09-14T04:19:44.458Z,11.00
2017-09-14T04:22:12.780Z,11.00
2017-09-14T04:24:40.337Z,11.00
2017-09-14T04:27:07.956Z,10.90
2017-09-14T04:29:35.528Z,10.90
2017-09-14T04:32:03.869Z,10.90
2017-09-14T04:34:31.489Z,10.90
2017-09-14T04:36:59.087Z,10.90
2017-09-14T04:39:26.650Z,10.90
2017-09-14T04:41:54.221Z,10.90
2017-09-14T04:44:21.806Z,10.90
2017-09-14T04:46:50.159Z,10.90
2017-09-14T04:49:17.778Z,10.90
2017-09-14T04:51:45.339Z,10.90
2017-09-14T04:54:12.925Z,10.90
2017-09-14T04:56:40.502Z,10.90
2017-09-14T04:59:08.088Z,10.90
2017-09-14T05:01:36.510Z,10.90
2017-09-14T05:04:04.121Z,10.90
2017-09-14T05:06:31.671Z,10.90
2017-09-14T05:08:59.242Z,10.90
2017-09-14T05:11:26.840Z,10.90
2017-09-14T05:13:54.410Z,10.80
2017-09-14T05:16:21.997Z,10.80
2017-09-14T05:18:49.574Z,10.80
2017-09-14T05:21:17.347Z,10.80
2017-09-14T05:23:44.905Z,10.90
2017-09-14T05:26:12.475Z,10.80
2017-09-14T05:28:40.042Z,10.80
2017-09-14T05:31:07.738Z,10.80
2017-09-14T05:33:35.365Z,10.80
2017-09-14T05:36:02.936Z,10.80
2017-09-14T05:38:31.299Z,10.90
2017-09-14T05:40:58.854Z,10.80
2017-09-14T05:43:26.444Z,10.90
2017-09-14T05:45:54.040Z,10.90
2017-09-14T05:48:21.631Z,11.00
2017-09-14T05:50:49.268Z,11.10
2017-09-14T05:53:16.886Z,11.20
2017-09-14T05:55:45.285Z,11.30
2017-09-14T05:58:12.862Z,11.30
2017-09-14T06:00:40.455Z,11.40
2017-09-14T06:03:08.031Z,11.50
2017-09-14T06:05:36.071Z,11.60
2017-09-14T06:08:03.639Z,11.60
2017-09-14T06:10:31.251Z,11.70
2017-09-14T06:12:58.822Z,11.70
2017-09-14T06:15:26.415Z,11.70
2017-09-14T06:17:54.006Z,11.80
2017-09-14T06:20:21.588Z,11.80
2017-09-14T06:22:49.941Z,12.00
2017-09-14T06:25:17.567Z,11.90
2017-09-14T06:27:45.903Z,12.10
2017-09-14T06:30:14.250Z,12.10
2017-09-14T06:32:41.827Z,12.10
2017-09-14T06:35:09.414Z,12.20
2017-09-14T06:37:37.737Z,12.30
2017-09-14T06:40:05.314Z,12.30
2017-09-14T06:42:32.875Z,12.30
2017-09-14T06:45:00.465Z,12.30
2017-09-14T06:47:29.099Z,12.40
2017-09-14T06:49:56.702Z,12.40
2017-09-14T06:52:25.058Z,12.50
2017-09-14T06:54:52.662Z,12.50
2017-09-14T06:57:20.990Z,12.70
2017-09-14T06:59:48.607Z,12.70
2017-09-14T07:02:16.162Z,12.90
2017-09-14T07:04:44.498Z,13.20
2017-09-14T07:07:12.118Z,13.20
2017-09-14T07:09:39.707Z,13.50
2017-09-14T07:12:07.298Z,13.90
2017-09-14T07:14:34.916Z,14.70
2017-09-14T07:17:03.250Z,14.40
2017-09-14T07:19:31.626Z,14.10
2017-09-14T07:21:59.214Z,14.00
2017-09-14T07:24:26.776Z,14.10
2017-09-14T07:26:54.335Z,14.40
2017-09-14T07:29:21.918Z,14.20
2017-09-14T07:31:49.498Z,14.00
2017-09-14T07:34:17.089Z,14.00
2017-09-14T07:36:44.672Z,13.90
2017-09-14T07:39:13.041Z,13.90
2017-09-14T07:41:41.383Z,13.70
2017-09-14T07:44:08.959Z,13.70
2017-09-14T07:46:36.542Z,13.80
2017-09-14T07:49:04.926Z,13.80
2017-09-14T07:51:33.304Z,13.90
2017-09-14T07:54:01.644Z,13.90
2017-09-14T07:56:29.230Z,13.90
2017-09-14T07:58:56.794Z,14.10
2017-09-14T08:01:25.170Z,13.90
2017-09-14T08:03:52.730Z,13.90
2017-09-14T08:06:20.298Z,13.70
2017-09-14T08:08:48.643Z,13.40
2017-09-14T08:11:16.222Z,13.30
2017-09-14T08:13:43.773Z,13.40
2017-09-14T08:16:11.367Z,13.50
2017-09-14T08:18:39.717Z,14.00
2017-09-14T08:21:07.314Z,14.00
2017-09-14T08:23:35.649Z,14.30
2017-09-14T08:26:03.235Z,14.30
2017-09-14T08:28:30.822Z,14.40
2017-09-14T08:30:59.151Z,14.60
2017-09-14T08:33:26.733Z,14.50
2017-09-14T08:35:55.230Z,14.40
2017-09-14T08:38:23.604Z,14.60
2017-09-14T08:40:51.156Z,14.50
2017-09-14T08:43:18.751Z,15.20
2017-09-14T08:45:46.328Z,15.90
2017-09-14T08:48:13.885Z,15.30
2017-09-14T08:50:41.507Z,14.30
2017-09-14T08:53:09.842Z,13.40
2017-09-14T08:55:37.417Z,13.30
2017-09-14T08:58:05.024Z,13.00
2017-09-14T09:00:33.363Z,12.40
2017-09-14T09:03:00.952Z,12.40
2017-09-14T09:05:29.275Z,12.40
2017-09-14T09:07:56.961Z,12.40
2017-09-14T09:10:24.590Z,12.90
2017-09-14T09:12:52.479Z,13.00
2017-09-14T09:15:20.047Z,12.80
2017-09-14T09:17:47.658Z,12.80
2017-09-14T09:20:15.989Z,12.50
2017-09-14T09:22:43.554Z,12.50
2017-09-14T09:25:11.946Z,12.50
2017-09-14T09:27:39.538Z,12.50
2017-09-14T09:30:07.887Z,12.90
2017-09-14T09:32:35.474Z,12.90
2017-09-14T09:35:03.826Z,12.80
2017-09-14T09:37:31.404Z,12.80
2017-09-14T09:39:58.982Z,13.00
2017-09-14T09:42:26.569Z,13.30
2017-09-14T09:44:54.152Z,13.20
2017-09-14T09:47:21.722Z,13.80
2017-09-14T09:49:49.290Z,14.40
2017-09-14T09:52:16.899Z,14.00
2017-09-14T09:54:45.370Z,13.60
2017-09-14T09:57:13.678Z,12.40
2017-09-14T09:59:41.268Z,12.40
2017-09-14T10:02:08.857Z,11.80
2017-09-14T10:04:37.195Z,11.30
2017-09-14T10:07:04.774Z,11.30
2017-09-14T10:09:32.376Z,11.10
2017-09-14T10:11:59.947Z,11.00
2017-09-14T10:14:27.514Z,10.80
2017-09-14T10:16:55.079Z,10.80
2017-09-14T10:19:22.688Z,11.30
2017-09-14T10:21:50.256Z,12.10
2017-09-14T10:24:17.819Z,12.70
2017-09-14T10:26:46.143Z,13.60
2017-09-14T10:29:13.727Z,13.60
2017-09-14T10:31:41.299Z,13.50
2017-09-14T10:34:08.880Z,13.40
2017-09-14T10:36:37.235Z,12.70
2017-09-14T10:39:04.811Z,12.70
2017-09-14T10:41:32.386Z,12.40
2017-09-14T10:44:00.735Z,11.70
2017-09-14T10:46:28.363Z,11.80
2017-09-14T10:48:55.993Z,11.50
2017-09-14T10:51:24.365Z,11.70
2017-09-14T10:53:51.922Z,11.70
2017-09-14T10:56:20.376Z,12.80
2017-09-14T10:58:47.968Z,12.80
2017-09-14T11:01:16.303Z,14.10
2017-09-14T11:03:43.879Z,14.10
2017-09-14T11:06:11.483Z,14.40
2017-09-14T11:08:39.088Z,14.40
2017-09-14T11:11:06.642Z,14.90
2017-09-14T11:13:34.314Z,14.90
2017-09-14T11:16:01.903Z,15.00
2017-09-14T11:18:29.478Z,14.80
2017-09-14T11:20:57.842Z,14.90
2017-09-14T11:23:25.395Z,14.90
2017-09-14T11:25:52.958Z,15.00
2017-09-14T11:28:20.531Z,15.30
2017-09-14T11:30:48.967Z,15.40
2017-09-14T11:33:16.558Z,15.30
2017-09-14T11:35:44.119Z,15.60
2017-09-14T11:38:11.698Z,15.30
2017-09-14T11:40:40.200Z,14.90
2017-09-14T11:43:08.527Z,14.40
2017-09-14T11:45:36.124Z,14.40
2017-09-14T11:48:04.474Z,13.80
2017-09-14T11:50:32.255Z,13.80
2017-09-14T11:52:59.843Z,13.80
2017-09-14T11:55:28.195Z,14.10
2017-09-14T11:57:55.898Z,14.10
2017-09-14T12:00:23.728Z,14.30
2017-09-14T12:02:51.291Z,14.60
2017-09-14T12:05:18.862Z,14.70
2017-09-14T12:07:47.215Z,15.20
2017-09-14T12:10:14.790Z,15.20
2017-09-14T12:12:42.382Z,15.40
2017-09-14T12:15:10.004Z,15.40
2017-09-14T12:17:37.718Z,15.10
2017-09-14T12:20:05.287Z,14.70
2017-09-14T12:22:32.883Z,14.70
2017-09-14T12:25:00.565Z,14.80
2017-09-14T12:27:28.919Z,14.60
2017-09-14T12:29:56.503Z,14.60
2017-09-14T12:32:24.859Z,14.70
2017-09-14T12:34:52.475Z,14.70
2017-09-14T12:37:20.122Z,14.70
2017-09-14T12:39:48.488Z,14.90
2017-09-14T12:42:16.064Z,14.90
2017-09-14T12:44:44.403Z,14.80
2017-09-14T12:47:12.002Z,14.80
2017-09-14T12:49:40.332Z,14.80
2017-09-14T12:52:07.911Z,14.80
2017-09-14T12:54:35.524Z,14.90
2017-09-14T12:57:03.143Z,14.90
2017-09-14T12:59:30.742Z,15.10
2017-09-14T13:01:58.348Z,14.90
2017-09-14T13:04:25.955Z,14.70
2017-09-14T13:06:54.312Z,14.40
2017-09-14T13:09:22.638Z,14.50
2017-09-14T13:11:50.231Z,14.40
2017-09-14T13:14:17.828Z,14.60
2017-09-14T13:16:46.199Z,14.80
2017-09-14T13:19:13.768Z,14.80
2017-09-14T13:21:42.327Z,14.90
2017-09-14T13:24:09.899Z,14.90
2017-09-14T13:26:37.646Z,14.80
2017-09-14T13:29:06.013Z,15.20
2017-09-14T13:31:33.675Z,15.10
2017-09-14T13:34:01.267Z,15.20
2017-09-14T13:36:30.042Z,15.10
2017-09-14T13:38:58.890Z,14.80
2017-09-14T13:41:26.526Z,14.80
2017-09-14T13:43:54.846Z,14.40
2017-09-14T13:46:23.347Z,14.40
2017-09-14T13:48:50.938Z,14.20
2017-09-14T13:51:19.306Z,13.90
2017-09-14T13:53:46.895Z,13.90
2017-09-14T13:56:15.248Z,14.30
2017-09-14T13:58:43.618Z,14.10
2017-09-14T14:01:11.194Z,14.00
2017-09-14T14:03:38.839Z,13.90
2017-09-14T14:06:06.404Z,13.80
2017-09-14T14:08:34.003Z,13.60
2017-09-14T14:11:02.487Z,13.70
2017-09-14T14:13:30.066Z,13.70
2017-09-14T14:15:57.746Z,13.80
2017-09-14T14:18:25.369Z,13.70
2017-09-14T14:20:53.723Z,13.70
2017-09-14T14:23:21.275Z,13.70
2017-09-14T14:25:48.880Z,13.70
2017-09-14T14:28:16.447Z,13.70
2017-09-14T14:30:44.034Z,13.80
2017-09-14T14:33:11.618Z,13.70
2017-09-14T14:35:39.199Z,13.60
2017-09-14T14:38:07.547Z,13.20
2017-09-14T14:40:35.147Z,13.30
2017-09-14T14:43:03.496Z,12.90
2017-09-14T14:45:31.096Z,12.80
2017-09-14T14:47:59.423Z,12.40
2017-09-14T14:50:27.007Z,12.40
2017-09-14T14:52:54.598Z,12.30
2017-09-14T14:55:22.186Z,12.10
2017-09-14T14:57:49.767Z,12.00
2017-09-14T15:00:17.346Z,11.90
2017-09-14T15:02:47.910Z,11.90
2017-09-14T15:05:15.519Z,11.70
2017-09-14T15:07:43.106Z,11.50
2017-09-14T15:10:10.649Z,11.40
2017-09-14T15:12:38.231Z,11.40
2017-09-14T15:15:06.570Z,11.20
2017-09-14T15:17:34.179Z,11.20
2017-09-14T15:20:02.584Z,11.10
2017-09-14T15:22:30.164Z,11.10
2017-09-14T15:24:57.722Z,11.00
2017-09-14T15:27:25.295Z,11.00
2017-09-14T15:29:53.076Z,10.90
2017-09-14T15:32:20.660Z,10.80
2017-09-14T15:34:48.239Z,10.70
2017-09-14T15:37:21.915Z,10.60
2017-09-14T15:39:55.246Z,10.60
2017-09-14T15:42:28.450Z,10.60
2017-09-14T15:45:01.671Z,10.60
2017-09-14T15:47:29.252Z,10.50
2017-09-14T15:50:03.368Z,10.40
2017-09-14T15:52:30.927Z,10.30
2017-09-14T15:54:58.832Z,10.30
2017-09-14T15:57:27.191Z,10.20
2017-09-14T15:59:54.767Z,10.10
2017-09-14T16:02:23.162Z,10.10
2017-09-14T16:04:50.742Z,10.10
2017-09-14T16:07:18.324Z,10.10
2017-09-14T16:09:46.837Z,10.10
2017-09-14T16:12:14.414Z,10.10
2017-09-14T16:14:42.789Z,10.10
2017-09-14T16:17:11.190Z,10.10
2017-09-14T16:19:38.786Z,10.10
2017-09-14T16:22:06.360Z,10.10
2017-09-14T16:24:33.954Z,10.10
2017-09-14T16:27:02.277Z,10.10
2017-09-14T16:29:29.870Z,10.10
2017-09-14T16:31:57.470Z,10.10
2017-09-14T16:34:25.098Z,10.10
2017-09-14T16:36:53.601Z,10.10
2017-09-14T16:39:22.011Z,10.10
2017-09-14T16:41:49.595Z,10.10
2017-09-14T16:44:17.177Z,10.10
2017-09-14T16:46:44.841Z,10.10
2017-09-14T16:49:13.252Z,10.10
2017-09-14T16:51:41.604Z,10.10
2017-09-14T16:54:09.194Z,10.10
2017-09-14T16:56:37.553Z,10.10
2017-09-14T16:59:05.161Z,10.10
2017-09-14T17:01:32.744Z,10.10
2017-09-14T17:04:00.326Z,10.10
2017-09-14T17:06:27.904Z,10.10
2017-09-14T17:08:56.250Z,10.20
2017-09-14T17:11:23.838Z,10.10
2017-09-14T17:13:52.201Z,10.20
2017-09-14T17:16:20.593Z,10.10
2017-09-14T17:18:48.172Z,10.20
2017-09-14T17:21:16.591Z,10.20
2017-09-14T17:23:44.948Z,10.20
2017-09-14T17:26:12.953Z,10.20
2017-09-14T17:28:40.543Z,10.20
2017-09-14T17:31:08.119Z,10.20
2017-09-14T17:33:36.584Z,10.30
2017-09-14T17:36:04.234Z,10.20
2017-09-14T17:38:31.811Z,10.30
2017-09-14T17:41:00.120Z,10.30
2017-09-14T17:43:27.703Z,10.40
2017-09-14T17:45:55.336Z,10.40
2017-09-14T17:48:24.018Z,10.40
2017-09-14T17:50:52.380Z,10.40
2017-09-14T17:53:19.991Z,10.40
2017-09-14T17:55:47.649Z,10.40
2017-09-14T17:58:15.219Z,10.50
2017-09-14T18:00:42.823Z,10.50
2017-09-14T18:03:10.428Z,10.50
2017-09-14T18:05:38.032Z,10.50
2017-09-14T18:08:05.652Z,10.60
2017-09-14T18:10:34.038Z,10.60
2017-09-14T18:13:01.640Z,10.60
2017-09-14T18:15:29.259Z,10.60
2017-09-14T18:17:56.968Z,10.70
2017-09-14T18:20:24.552Z,10.70
2017-09-14T18:22:52.914Z,10.70
2017-09-14T18:25:20.514Z,10.70
2017-09-14T18:27:48.184Z,10.80
2017-09-14T18:30:15.777Z,10.80
2017-09-14T18:32:43.366Z,10.90
2017-09-14T18:35:11.061Z,10.90
2017-09-14T18:37:38.684Z,11.00
2017-09-14T18:40:06.451Z,11.00
2017-09-14T18:42:34.057Z,11.00
2017-09-14T18:45:01.660Z,11.00
2017-09-14T18:47:29.367Z,11.10
2017-09-14T18:49:57.741Z,11.10
2017-09-14T18:52:25.447Z,11.10
2017-09-14T18:54:53.035Z,11.10
2017-09-14T18:57:20.624Z,11.20
2017-09-14T18:59:49.001Z,11.20
2017-09-14T19:02:17.636Z,11.30
2017-09-14T19:04:45.224Z,11.20
2017-09-14T19:07:12.844Z,11.30
2017-09-14T19:09:40.550Z,11.30
2017-09-14T19:12:08.177Z,11.30
2017-09-14T19:14:35.773Z,11.30
2017-09-14T19:17:03.387Z,11.30
2017-09-14T19:19:31.235Z,11.30
2017-09-14T19:22:00.214Z,11.40
2017-09-14T19:24:27.775Z,11.40
2017-09-14T19:26:56.160Z,11.40
2017-09-14T19:29:24.527Z,11.40
2017-09-14T19:31:53.171Z,11.40
2017-09-14T19:34:20.787Z,11.40
2017-09-14T19:36:49.238Z,11.40
2017-09-14T19:39:17.647Z,11.50
2017-09-14T19:41:45.987Z,11.50
2017-09-14T19:44:13.632Z,11.50
2017-09-14T19:46:41.315Z,11.50
2017-09-14T19:49:08.893Z,11.50
2017-09-14T19:51:36.502Z,11.60
2017-09-14T19:54:04.117Z,11.60
2017-09-14T19:56:31.704Z,11.50
2017-09-14T19:59:00.067Z,11.60
2017-09-14T20:01:28.529Z,11.60
2017-09-14T20:03:56.465Z,11.60
2017-09-14T20:06:24.832Z,11.60
2017-09-14T20:08:52.408Z,11.60
2017-09-14T20:11:20.014Z,11.60
2017-09-14T20:13:47.597Z,11.60
2017-09-14T20:16:15.980Z,11.70
2017-09-14T20:18:44.335Z,11.70
2017-09-14T20:21:11.924Z,11.70
2017-09-14T20:23:40.271Z,11.80
2017-09-14T20:26:07.863Z,11.70
2017-09-14T20:28:35.477Z,11.70
2017-09-14T20:31:03.062Z,11.70
2017-09-14T20:33:30.652Z,11.70
2017-09-14T20:35:59.021Z,11.70
2017-09-14T20:38:29.902Z,11.70
2017-09-14T20:40:57.611Z,11.70
2017-09-14T20:43:25.967Z,11.70
2017-09-14T20:45:53.560Z,11.70
2017-09-14T20:48:21.955Z,11.60
2017-09-14T20:50:49.543Z,11.60
2017-09-14T20:53:17.131Z,11.60
2017-09-14T20:55:44.714Z,11.60
2017-09-14T20:58:12.684Z,11.60
2017-09-14T21:00:40.375Z,11.60
2017-09-14T21:03:07.972Z,11.60
2017-09-14T21:05:35.579Z,11.60
2017-09-14T21:08:03.925Z,11.60
2017-09-14T21:10:31.557Z,11.60
2017-09-14T21:12:59.149Z,11.60
2017-09-14T21:15:26.733Z,11.60
2017-09-14T21:17:54.321Z,11.60
2017-09-14T21:20:21.955Z,11.60
2017-09-14T21:22:49.501Z,11.60
2017-09-14T21:25:17.100Z,11.70
2017-09-14T21:27:45.459Z,11.60
2017-09-14T21:30:13.057Z,11.70
2017-09-14T21:32:40.667Z,11.70
2017-09-14T21:35:08.213Z,11.70
2017-09-14T21:37:35.811Z,11.70
2017-09-14T21:40:04.158Z,11.70
2017-09-14T21:42:31.850Z,11.60
2017-09-14T21:45:00.183Z,11.70
2017-09-14T21:47:27.753Z,11.70
2017-09-14T21:49:56.342Z,11.70
2017-09-14T21:52:23.914Z,11.70
2017-09-14T21:54:51.693Z,11.70
2017-09-14T21:57:19.293Z,11.60
2017-09-14T21:59:46.886Z,11.70
2017-09-14T22:02:14.491Z,11.70
2017-09-14T22:04:42.863Z,11.70
2017-09-14T22:07:11.204Z,11.70
2017-09-14T22:09:38.807Z,11.70
2017-09-14T22:12:07.172Z,11.70
2017-09-14T22:14:34.743Z,11.70
2017-09-14T22:17:03.099Z,11.70
2017-09-14T22:19:30.710Z,11.70
2017-09-14T22:21:58.310Z,11.70
2017-09-14T22:24:25.926Z,11.70
2017-09-14T22:26:53.512Z,11.70
2017-09-14T22:29:21.160Z,11.70
2017-09-14T22:31:48.730Z,11.70
2017-09-14T22:34:16.588Z,11.70
2017-09-14T22:36:44.164Z,11.70
2017-09-14T22:39:11.761Z,11.70
2017-09-14T22:41:39.398Z,11.70
2017-09-14T22:44:06.984Z,11.70
2017-09-14T22:46:34.590Z,11.80
2017-09-14T22:49:02.167Z,11.70
2017-09-14T22:51:29.786Z,11.70
2017-09-14T22:53:57.346Z,11.70
2017-09-14T22:56:25.719Z,11.80
2017-09-14T22:58:53.302Z,11.80
2017-09-14T23:01:21.040Z,11.80
2017-09-14T23:03:48.604Z,11.80
2017-09-14T23:06:16.183Z,11.80
2017-09-14T23:08:44.613Z,11.80
2017-09-14T23:11:12.190Z,11.80
2017-09-14T23:13:39.788Z,11.80
2017-09-14T23:16:08.143Z,11.90
2017-09-14T23:18:35.732Z,11.90
2017-09-14T23:21:04.083Z,11.90
2017-09-14T23:23:31.708Z,11.90
2017-09-14T23:25:59.291Z,11.90
2017-09-14T23:28:26.882Z,11.80
2017-09-14T23:30:55.233Z,11.80
2017-09-14T23:33:22.861Z,11.80
2017-09-14T23:35:50.471Z,11.80
2017-09-14T23:38:18.077Z,11.70
2017-09-14T23:40:45.710Z,11.70
2017-09-14T23:43:14.409Z,11.70
2017-09-14T23:45:42.811Z,11.60
2017-09-14T23:48:10.377Z,11.60
2017-09-14T23:50:38.722Z,11.60
2017-09-14T23:53:07.067Z,11.60
2017-09-14T23:55:35.402Z,11.50
2017-09-14T23:58:02.983Z,11.50
